createdAt,value
2016-07-25T17:20:09.958Z,5880
2016-07-25T17:21:09.032Z,5848
2016-07-25T17:22:09.034Z,5740
2016-07-25T17:23:09.995Z,5740
2016-07-25T17:24:09.073Z,5784
2016-07-25T17:25:09.304Z,5924
2016-07-25T17:26:09.813Z,6036
2016-07-25T17:27:10.224Z,5996
2016-07-25T17:28:09.126Z,5848
2016-07-25T17:29:09.137Z,5636
2016-07-25T17:30:09.154Z,5464
2016-07-25T17:31:09.904Z,5280
2016-07-25T17:32:09.899Z,5060
2016-07-25T17:33:09.932Z,4880
2016-07-25T17:34:09.213Z,4844
2016-07-25T17:35:10.674Z,4820
2016-07-25T17:36:09.956Z,4768
2016-07-25T17:37:09.482Z,4688
2016-07-25T17:38:24.380Z,4644
2016-07-25T17:39:09.488Z,4636
2016-07-25T17:40:10.243Z,4632
2016-07-25T17:41:09.564Z,4632
2016-07-25T17:42:10.262Z,4624
2016-07-25T17:43:10.059Z,4584
2016-07-25T17:44:11.191Z,4500
2016-07-25T17:45:10.314Z,4340
2016-07-25T17:46:10.110Z,4160
2016-07-25T17:47:10.133Z,3972
2016-07-25T17:48:10.435Z,3740
2016-07-25T17:49:09.438Z,3500
2016-07-25T17:50:10.807Z,3264
2016-07-25T17:51:09.691Z,3116
2016-07-25T17:52:09.483Z,2996
2016-07-25T17:53:10.207Z,2884
2016-07-25T17:54:09.721Z,2788
2016-07-25T17:55:10.237Z,2680
2016-07-25T17:56:09.541Z,2528
2016-07-25T17:57:09.555Z,2384
2016-07-25T17:58:10.683Z,2280
2016-07-25T17:59:11.052Z,2216
2016-07-25T18:00:10.210Z,2176
2016-07-25T18:01:09.613Z,2132
2016-07-25T18:02:09.649Z,2088
2016-07-25T18:03:09.647Z,2028
2016-07-25T18:04:10.599Z,1964
2016-07-25T18:05:09.673Z,1924
2016-07-25T18:06:09.706Z,1880
2016-07-25T18:07:09.934Z,1832
2016-07-25T18:08:10.439Z,1784
2016-07-25T18:09:10.444Z,1740
2016-07-25T18:10:09.746Z,1688
2016-07-25T18:11:10.481Z,1620
2016-07-25T18:12:10.685Z,1556
2016-07-25T18:13:10.507Z,1492
2016-07-25T18:14:10.543Z,1416
2016-07-25T18:15:10.822Z,1348
2016-07-25T18:16:10.770Z,1288
2016-07-25T18:17:10.455Z,1248
2016-07-25T18:18:09.861Z,1220
2016-07-25T18:19:09.871Z,1196
2016-07-25T18:20:10.100Z,1184
2016-07-25T18:21:09.912Z,1172
2016-07-25T18:22:09.911Z,1160
2016-07-25T18:23:10.655Z,1136
2016-07-25T18:24:09.943Z,1104
2016-07-25T18:25:09.978Z,1056
2016-07-25T18:26:09.994Z,996
2016-07-25T18:27:10.701Z,936
2016-07-25T18:28:11.142Z,884
2016-07-25T18:29:10.022Z,836
2016-07-25T18:30:11.477Z,792
2016-07-25T18:31:11.530Z,756
2016-07-25T18:32:10.061Z,724
2016-07-25T18:33:10.082Z,696
2016-07-25T18:34:10.087Z,664
2016-07-25T18:35:11.788Z,632
2016-07-25T18:36:10.133Z,608
2016-07-25T18:37:11.572Z,576
2016-07-25T18:38:10.868Z,556
2016-07-25T18:39:10.862Z,528
2016-07-25T18:40:10.175Z,504
2016-07-25T18:41:10.908Z,488
2016-07-25T18:42:10.219Z,464
2016-07-25T18:43:10.415Z,444
2016-07-25T18:44:10.236Z,428
2016-07-25T18:45:10.968Z,416
2016-07-25T18:46:10.983Z,396
2016-07-25T18:47:10.988Z,384
2016-07-25T18:48:10.309Z,368
2016-07-25T18:49:27.082Z,348
2016-07-25T18:50:11.014Z,332
2016-07-25T18:51:11.193Z,316
2016-07-25T18:52:10.383Z,304
2016-07-25T18:53:25.228Z,284
2016-07-25T18:54:11.383Z,272
2016-07-25T18:55:11.201Z,260
2016-07-25T18:56:11.114Z,252
2016-07-25T18:57:10.608Z,240
2016-07-25T18:58:10.413Z,224
2016-07-25T18:59:10.432Z,216
2016-07-25T19:00:11.377Z,200
2016-07-25T19:01:11.186Z,184
2016-07-25T19:02:10.489Z,176
2016-07-25T19:03:26.167Z,160
2016-07-25T19:04:11.442Z,148
2016-07-25T19:05:10.914Z,140
2016-07-25T19:06:12.179Z,128
2016-07-25T19:07:25.402Z,116
2016-07-25T19:08:12.722Z,108
2016-07-25T19:10:12.682Z,88
2016-07-25T19:11:10.596Z,80
2016-07-25T19:12:25.718Z,68
2016-07-25T19:13:13.068Z,64
2016-07-25T19:14:11.585Z,60
2016-07-25T19:15:10.849Z,52
2016-07-25T19:16:11.821Z,48
2016-07-25T19:18:13.369Z,36
2016-07-25T19:19:10.698Z,36
2016-07-25T19:20:10.725Z,32
2016-07-25T19:21:10.719Z,24
2016-07-25T19:22:10.736Z,24
2016-07-25T19:23:10.748Z,16
2016-07-25T19:24:10.965Z,20
2016-07-25T19:25:11.495Z,16
2016-07-25T19:26:12.980Z,12
2016-07-25T19:27:12.126Z,12
2016-07-25T19:28:10.812Z,12
2016-07-25T19:29:10.831Z,8
2016-07-25T19:30:12.326Z,8
2016-07-25T19:31:11.968Z,4
2016-07-25T19:32:11.809Z,8
2016-07-25T19:33:11.603Z,4
2016-07-25T19:34:11.839Z,4
2016-07-25T19:35:11.637Z,4
2016-07-25T19:36:10.936Z,4
2016-07-25T19:37:11.652Z,4
2016-07-25T19:38:15.720Z,4
2016-07-25T19:39:11.683Z,4
2016-07-25T19:40:12.051Z,0
2016-07-25T19:41:11.826Z,0
2016-07-25T19:42:11.893Z,0
2016-07-25T19:43:11.147Z,0
2016-07-25T19:44:11.280Z,0
2016-07-25T19:45:12.939Z,0
2016-07-25T19:46:11.137Z,0
2016-07-25T19:47:11.120Z,0
2016-07-25T19:48:11.478Z,0
2016-07-25T19:49:11.802Z,0
2016-07-25T19:50:12.813Z,0
2016-07-25T19:51:11.327Z,0
2016-07-25T19:52:11.834Z,0
2016-07-25T19:53:12.600Z,0
2016-07-25T19:54:12.227Z,0
2016-07-25T19:56:12.182Z,0
2016-07-25T19:57:11.475Z,0
2016-07-25T19:58:11.636Z,0
2016-07-25T19:59:12.049Z,0
2016-07-25T20:00:13.531Z,0
2016-07-25T20:01:11.234Z,0
2016-07-25T20:02:11.254Z,0
2016-07-25T20:03:11.330Z,0
2016-07-25T20:04:11.366Z,0
2016-07-25T20:05:11.493Z,0
2016-07-25T20:06:12.026Z,0
2016-07-25T20:07:12.100Z,0
2016-07-25T20:08:11.821Z,0
2016-07-25T20:09:12.120Z,0
2016-07-25T20:10:11.615Z,0
2016-07-25T20:11:12.807Z,0
2016-07-25T20:12:13.087Z,0
2016-07-25T20:13:11.394Z,0
2016-07-25T20:14:12.323Z,0
2016-07-25T20:16:11.422Z,0
2016-07-25T20:17:13.419Z,0
2016-07-25T20:18:12.254Z,0
2016-07-25T20:19:11.476Z,0
2016-07-25T20:20:11.662Z,0
2016-07-25T20:21:11.791Z,0
2016-07-25T20:22:12.240Z,0
2016-07-25T20:23:11.627Z,0
2016-07-25T20:24:12.244Z,0
2016-07-25T20:26:12.522Z,0
2016-07-25T20:27:12.274Z,0
2016-07-25T20:28:12.281Z,0
2016-07-25T20:29:12.284Z,0
2016-07-25T20:30:11.588Z,0
2016-07-25T20:31:11.603Z,0
2016-07-25T20:32:41.359Z,0
2016-07-25T20:33:12.358Z,0
2016-07-25T20:34:11.642Z,0
2016-07-25T20:35:12.364Z,0
2016-07-25T20:36:11.666Z,0
2016-07-25T20:37:12.388Z,0
2016-07-25T20:38:11.886Z,0
2016-07-25T20:39:12.426Z,0
2016-07-25T20:40:11.910Z,0
2016-07-25T20:41:12.661Z,0
2016-07-25T20:42:11.743Z,0
2016-07-25T20:43:11.748Z,0
2016-07-25T20:44:11.750Z,0
2016-07-25T20:45:11.770Z,0
2016-07-25T20:46:12.493Z,0
2016-07-25T20:47:11.796Z,0
2016-07-25T20:48:12.007Z,0
2016-07-25T20:49:12.731Z,0
2016-07-25T20:50:11.840Z,0
2016-07-25T20:51:12.544Z,0
2016-07-25T20:52:11.852Z,0
2016-07-25T20:53:12.592Z,0
2016-07-25T20:54:12.601Z,0
2016-07-25T20:55:11.944Z,0
2016-07-25T20:56:12.104Z,0
2016-07-25T20:57:12.731Z,0
2016-07-25T20:58:11.925Z,0
2016-07-25T20:59:12.137Z,0
2016-07-25T21:00:12.148Z,0
2016-07-25T21:01:13.411Z,0
2016-07-25T21:02:12.182Z,0
2016-07-25T21:03:12.184Z,0
2016-07-25T21:04:11.995Z,0
2016-07-25T21:05:12.921Z,0
2016-07-25T21:06:12.223Z,0
2016-07-25T21:07:12.746Z,0
2016-07-25T21:08:12.246Z,0
2016-07-25T21:09:12.044Z,0
2016-07-25T21:10:12.091Z,0
2016-07-25T21:11:12.987Z,0
2016-07-25T21:12:12.102Z,0
2016-07-25T21:13:12.104Z,0
2016-07-25T21:14:12.138Z,0
2016-07-25T21:15:12.125Z,0
2016-07-25T21:16:26.994Z,0
2016-07-25T21:17:12.347Z,0
2016-07-25T21:18:12.414Z,0
2016-07-25T21:19:12.900Z,0
2016-07-25T21:20:12.187Z,0
2016-07-25T21:21:13.360Z,0
2016-07-25T21:22:12.413Z,0
2016-07-25T21:23:12.421Z,0
2016-07-25T21:24:12.424Z,0
2016-07-25T21:25:12.227Z,0
2016-07-25T21:26:12.240Z,0
2016-07-25T21:27:28.042Z,0
2016-07-25T21:28:12.259Z,0
2016-07-25T21:29:12.734Z,0
2016-07-25T21:30:13.743Z,0
2016-07-25T21:31:13.218Z,0
2016-07-25T21:32:13.757Z,0
2016-07-25T21:33:27.183Z,0
2016-07-25T21:34:13.238Z,0
2016-07-25T21:35:12.339Z,0
2016-07-25T21:36:13.261Z,0
2016-07-25T21:37:12.578Z,0
2016-07-25T21:38:13.093Z,0
2016-07-25T21:39:14.250Z,0
2016-07-25T21:40:13.327Z,0
2016-07-25T21:41:12.622Z,0
2016-07-25T21:42:12.488Z,0
2016-07-25T21:43:12.430Z,0
2016-07-25T21:44:12.644Z,0
2016-07-25T21:45:27.327Z,0
2016-07-25T21:46:12.671Z,0
2016-07-25T21:47:13.181Z,0
2016-07-25T21:49:13.217Z,0
2016-07-25T21:50:12.503Z,0
2016-07-25T21:51:12.561Z,0
2016-07-25T21:52:12.527Z,0
2016-07-25T21:53:14.019Z,0
2016-07-25T21:54:12.770Z,0
2016-07-25T21:55:12.769Z,0
2016-07-25T21:56:12.584Z,0
2016-07-25T21:57:12.592Z,0
2016-07-25T21:58:12.598Z,0
2016-07-25T21:59:27.467Z,0
2016-07-25T22:00:12.849Z,0
2016-07-25T22:01:12.630Z,0
2016-07-25T22:02:13.352Z,0
2016-07-25T22:03:12.649Z,0
2016-07-25T22:04:12.668Z,0
2016-07-25T22:05:12.690Z,0
2016-07-25T22:06:13.577Z,0
2016-07-25T22:07:28.291Z,0
2016-07-25T22:08:12.705Z,0
2016-07-25T22:09:14.170Z,0
2016-07-25T22:10:12.729Z,0
2016-07-25T22:11:12.735Z,0
2016-07-25T22:12:13.685Z,0
2016-07-25T22:13:12.757Z,0
2016-07-25T22:14:14.233Z,0
2016-07-25T22:15:13.192Z,0
2016-07-25T22:16:12.790Z,0
2016-07-25T22:17:13.033Z,0
2016-07-25T22:19:13.751Z,0
2016-07-25T22:20:13.566Z,0
2016-07-25T22:21:12.848Z,0
2016-07-25T22:22:12.861Z,0
2016-07-25T22:23:28.646Z,0
2016-07-25T22:24:12.877Z,0
2016-07-25T22:25:12.902Z,0
2016-07-25T22:26:13.601Z,0
2016-07-25T22:27:27.775Z,0
2016-07-25T22:28:13.123Z,0
2016-07-25T22:29:13.852Z,0
2016-07-25T22:30:12.940Z,0
2016-07-25T22:31:12.954Z,0
2016-07-25T22:32:27.827Z,0
2016-07-25T22:33:12.990Z,0
2016-07-25T22:34:12.986Z,0
2016-07-25T22:35:13.942Z,0
2016-07-25T22:36:13.963Z,0
2016-07-25T22:37:13.036Z,0
2016-07-25T22:38:13.025Z,0
2016-07-25T22:39:13.961Z,0
2016-07-25T22:40:13.048Z,0
2016-07-25T22:41:13.296Z,0
2016-07-25T22:42:13.073Z,0
2016-07-25T22:43:13.096Z,0
2016-07-25T22:44:13.803Z,0
2016-07-25T22:45:13.107Z,0
2016-07-25T22:46:13.123Z,0
2016-07-25T22:47:13.330Z,0
2016-07-25T22:48:13.358Z,0
2016-07-25T22:49:13.158Z,0
2016-07-25T22:50:13.152Z,0
2016-07-25T22:51:14.156Z,0
2016-07-25T22:52:14.222Z,0
2016-07-25T22:53:13.192Z,0
2016-07-25T22:54:13.404Z,0
2016-07-25T22:55:15.065Z,0
2016-07-25T22:56:13.804Z,0
2016-07-25T22:57:13.767Z,0
2016-07-25T22:58:13.239Z,0
2016-07-25T22:59:13.263Z,0
2016-07-25T23:00:13.872Z,0
2016-07-25T23:01:13.503Z,0
2016-07-25T23:02:14.235Z,0
2016-07-25T23:03:13.558Z,0
2016-07-25T23:04:14.843Z,0
2016-07-25T23:05:14.069Z,0
2016-07-25T23:06:13.361Z,0
2016-07-25T23:07:13.339Z,0
2016-07-25T23:08:14.074Z,0
2016-07-25T23:09:28.226Z,0
2016-07-25T23:10:13.374Z,0
2016-07-25T23:11:13.388Z,0
2016-07-25T23:13:28.476Z,0
2016-07-25T23:14:13.425Z,0
2016-07-25T23:15:13.455Z,0
2016-07-25T23:16:13.436Z,0
2016-07-25T23:17:14.945Z,0
2016-07-25T23:18:13.505Z,0
2016-07-25T23:19:13.475Z,0
2016-07-25T23:20:14.206Z,0
2016-07-25T23:21:13.494Z,0
2016-07-25T23:22:14.308Z,0
2016-07-25T23:23:13.640Z,0
2016-07-25T23:24:13.522Z,0
2016-07-25T23:25:13.526Z,0
2016-07-25T23:26:14.701Z,0
2016-07-25T23:27:13.844Z,0
2016-07-25T23:28:13.772Z,0
2016-07-25T23:29:13.804Z,0
2016-07-25T23:30:13.940Z,0
2016-07-25T23:31:13.793Z,0
2016-07-25T23:32:13.602Z,0
2016-07-25T23:33:13.613Z,0
2016-07-25T23:34:14.369Z,0
2016-07-25T23:35:13.875Z,0
2016-07-25T23:36:15.083Z,0
2016-07-25T23:37:13.658Z,0
2016-07-25T23:38:13.664Z,0
2016-07-25T23:39:13.681Z,0
2016-07-25T23:40:13.681Z,0
2016-07-25T23:41:13.693Z,0
2016-07-25T23:42:15.182Z,0
2016-07-25T23:43:14.432Z,0
2016-07-25T23:44:13.726Z,0
2016-07-25T23:45:13.741Z,0
2016-07-25T23:46:13.744Z,0
2016-07-25T23:48:13.773Z,0
2016-07-25T23:49:13.794Z,0
2016-07-25T23:50:13.812Z,0
2016-07-25T23:51:13.811Z,0
2016-07-25T23:52:13.809Z,0
2016-07-25T23:53:13.822Z,0
2016-07-25T23:54:14.040Z,0
2016-07-25T23:55:13.887Z,0
2016-07-25T23:56:13.849Z,0
2016-07-25T23:57:14.761Z,0
2016-07-25T23:58:13.880Z,0
2016-07-25T23:59:13.887Z,0
